Terminal Aerodrome Forecast
Issued by NWS

Home | Current Version | Previous Version | Graphics & Text | Print | Product List | Glossary On
Versions: 1 2 3 4 5 6 7 8 9 10 11 12 13 14 15 16 17 18 19 20 21 22 23 24 25 26 27 28 29 30 31 32 33
000
FTUS43 KLOT 291900 AAB
TAFDPA
TAF AMD
KDPA 291948Z 2920/3018 18012G18KT P6SM VCTS BKN035CB BKN080
     FM292300 17010KT P6SM SCT035 SCT080
     FM300600 20009KT P6SM VCSH FEW035 BKN060
      TEMPO 3008/3012 -TSRA BKN035CB
     FM301600 22013G21KT P6SM VCSH BKN035=

USA.gov is the U.S. government's official web portal to all federal, state and local government web resources and services.